createdAt,value
2023-03-25T00:01:33.664Z,0.80
2023-03-25T00:06:26.110Z,0.70
2023-03-25T00:11:23.296Z,0.80
2023-03-25T00:16:17.312Z,0.88
2023-03-25T00:21:16.675Z,0.98
2023-03-25T00:26:08.849Z,0.93
2023-03-25T00:31:03.523Z,0.70
2023-03-25T00:36:00.003Z,0.70
2023-03-25T00:40:55.034Z,0.70
2023-03-25T00:45:48.766Z,0.60
2023-03-25T00:50:43.975Z,1.00
2023-03-25T00:55:41.746Z,0.68
2023-03-25T01:00:35.210Z,1.42
2023-03-25T01:05:28.010Z,0.80
2023-03-25T01:10:19.625Z,0.88
2023-03-25T01:15:19.149Z,1.20
2023-03-25T01:20:13.801Z,1.30
2023-03-25T01:25:07.397Z,0.77
2023-03-25T01:30:00.167Z,1.10
2023-03-25T01:34:53.982Z,0.80
2023-03-25T01:39:47.478Z,1.10
2023-03-25T01:45:08.853Z,0.75
2023-03-25T01:50:03.200Z,0.70
2023-03-25T01:54:56.224Z,0.93
2023-03-25T01:59:48.486Z,0.70
2023-03-25T02:05:02.697Z,0.75
2023-03-25T02:09:59.624Z,1.25
2023-03-25T02:14:55.521Z,0.70
2023-03-25T02:20:24.049Z,0.68
2023-03-25T02:25:50.322Z,0.80
2023-03-25T02:31:21.158Z,0.70
2023-03-25T02:36:41.570Z,0.95
2023-03-25T02:41:43.064Z,0.80
2023-03-25T02:46:40.585Z,1.00
2023-03-25T02:51:36.548Z,0.95
2023-03-25T02:56:34.058Z,0.90
2023-03-25T03:01:35.688Z,1.23
2023-03-25T03:06:29.144Z,0.90
2023-03-25T03:11:23.941Z,1.10
2023-03-25T03:16:29.798Z,1.23
2023-03-25T03:21:33.979Z,1.30
2023-03-25T03:26:32.789Z,1.70
2023-03-25T03:31:59.241Z,1.50
2023-03-25T03:36:54.307Z,1.20
2023-03-25T03:41:54.297Z,1.50
2023-03-25T03:46:52.138Z,1.60
2023-03-25T03:51:56.623Z,1.00
2023-03-25T03:56:58.640Z,1.80
2023-03-25T04:02:02.761Z,1.93
2023-03-25T04:07:06.481Z,1.58
2023-03-25T04:12:05.089Z,1.23
2023-03-25T04:17:00.427Z,1.63
2023-03-25T04:21:55.686Z,1.23
2023-03-25T04:26:50.139Z,1.67
2023-03-25T04:31:46.985Z,1.15
2023-03-25T04:36:39.742Z,1.80
2023-03-25T04:41:32.797Z,1.85
2023-03-25T04:46:27.064Z,1.38
2023-03-25T04:51:21.671Z,1.10
2023-03-25T04:56:26.408Z,1.50
2023-03-25T05:01:31.091Z,1.98
2023-03-25T05:06:24.678Z,1.47
2023-03-25T05:11:20.339Z,1.50
2023-03-25T05:16:16.913Z,1.15
2023-03-25T05:21:13.841Z,1.25
2023-03-25T05:26:05.500Z,1.20
2023-03-25T05:31:09.493Z,1.23
2023-03-25T05:36:02.000Z,1.25
2023-03-25T05:40:56.219Z,1.00
2023-03-25T05:45:47.176Z,1.10
2023-03-25T05:50:43.166Z,0.67
2023-03-25T05:55:38.742Z,1.30
2023-03-25T06:00:38.223Z,1.40
2023-03-25T06:05:37.926Z,1.10
2023-03-25T06:10:37.819Z,1.33
2023-03-25T06:15:42.043Z,0.90
2023-03-25T06:20:35.387Z,1.40
2023-03-25T06:25:37.617Z,1.20
2023-03-25T06:30:33.736Z,1.20
2023-03-25T06:35:32.124Z,1.17
2023-03-25T06:40:33.500Z,1.77
2023-03-25T06:45:32.329Z,1.40
2023-03-25T06:50:50.407Z,1.42
2023-03-25T06:55:48.746Z,2.20
2023-03-25T07:00:53.470Z,1.63
2023-03-25T07:05:46.427Z,1.80
2023-03-25T07:10:41.205Z,1.83
2023-03-25T07:15:36.732Z,1.33
2023-03-25T07:20:27.993Z,1.30
2023-03-25T07:25:22.220Z,1.58
2023-03-25T07:30:14.540Z,1.73
2023-03-25T07:35:09.982Z,1.98
2023-03-25T07:40:05.979Z,1.80
2023-03-25T07:44:59.784Z,1.45
2023-03-25T07:50:03.015Z,1.50
2023-03-25T07:54:55.963Z,1.92
2023-03-25T07:59:46.582Z,1.20
2023-03-25T08:04:50.656Z,1.55
2023-03-25T08:09:45.466Z,1.80
2023-03-25T08:14:39.715Z,2.47
2023-03-25T08:19:35.299Z,1.85
2023-03-25T08:24:30.549Z,1.63
2023-03-25T08:29:27.287Z,2.20
2023-03-25T08:34:22.205Z,2.38
2023-03-25T08:39:17.654Z,2.40
2023-03-25T08:44:09.904Z,3.05
2023-03-25T08:49:05.268Z,2.67
2023-03-25T08:53:59.880Z,2.53
2023-03-25T08:58:51.019Z,2.70
2023-03-25T09:03:45.634Z,3.20
2023-03-25T09:08:37.155Z,2.57
2023-03-25T09:13:40.130Z,2.95
2023-03-25T09:18:32.244Z,2.40
2023-03-25T09:23:23.616Z,3.20
2023-03-25T09:28:13.984Z,3.95
2023-03-25T09:33:10.355Z,2.80
2023-03-25T09:38:02.132Z,3.10
2023-03-25T09:43:37.978Z,3.20
2023-03-25T09:48:37.952Z,2.95
2023-03-25T09:53:39.674Z,2.67
2023-03-25T09:58:44.099Z,2.47
2023-03-25T10:03:58.511Z,2.28
2023-03-25T10:08:58.929Z,2.40
2023-03-25T10:13:57.538Z,1.90
2023-03-25T10:19:17.980Z,3.27
2023-03-25T10:24:22.107Z,2.47
2023-03-25T10:29:16.752Z,2.23
2023-03-25T10:34:25.536Z,2.00
2023-03-25T10:39:23.108Z,2.38
2023-03-25T10:44:17.517Z,1.63
2023-03-25T10:49:16.220Z,2.90
2023-03-25T10:54:14.171Z,1.35
2023-03-25T10:59:12.714Z,2.00
2023-03-25T11:04:18.096Z,2.65
2023-03-25T11:09:24.762Z,2.53
2023-03-25T11:14:28.298Z,2.05
2023-03-25T11:19:27.300Z,2.33
2023-03-25T11:24:23.470Z,1.77
2023-03-25T11:29:32.186Z,2.05
2023-03-25T11:34:30.587Z,1.60
2023-03-25T11:39:29.632Z,1.77
2023-03-25T11:44:27.291Z,2.35
2023-03-25T11:49:24.446Z,2.37
2023-03-25T11:54:21.062Z,2.00
2023-03-25T11:59:21.613Z,1.25
2023-03-25T12:04:19.987Z,1.50
2023-03-25T12:09:15.466Z,1.90
2023-03-25T12:14:26.481Z,1.33
2023-03-25T12:19:25.984Z,1.40
2023-03-25T12:24:35.082Z,1.45
2023-03-25T12:29:44.340Z,1.38
2023-03-25T12:34:47.152Z,0.82
2023-03-25T12:39:53.941Z,1.63
2023-03-25T12:45:09.477Z,1.73
2023-03-25T12:50:25.452Z,1.45
2023-03-25T12:55:35.658Z,0.90
2023-03-25T13:00:56.922Z,1.13
2023-03-25T13:05:53.144Z,1.15
2023-03-25T13:10:48.374Z,1.00
2023-03-25T13:15:47.005Z,1.20
2023-03-25T13:20:43.143Z,2.23
2023-03-25T13:25:39.805Z,1.33
2023-03-25T13:30:42.301Z,1.20
2023-03-25T13:35:42.315Z,1.10
2023-03-25T13:40:47.837Z,1.40
2023-03-25T13:45:52.335Z,1.30
2023-03-25T13:50:50.508Z,1.20
2023-03-25T13:55:45.336Z,1.33
2023-03-25T14:01:04.055Z,0.70
2023-03-25T14:06:20.634Z,0.90
2023-03-25T14:11:26.960Z,1.00
2023-03-25T14:16:24.228Z,1.57
2023-03-25T14:21:38.837Z,1.30
2023-03-25T14:26:33.041Z,0.97
2023-03-25T14:31:34.414Z,1.48
2023-03-25T14:36:57.435Z,0.95
2023-03-25T14:42:29.378Z,2.08
2023-03-25T14:47:37.616Z,1.80
2023-03-25T14:52:38.012Z,1.90
2023-03-25T14:57:36.762Z,2.05
2023-03-25T15:02:34.101Z,1.88
2023-03-25T15:07:43.203Z,1.75
2023-03-25T15:12:43.034Z,2.00
2023-03-25T15:17:48.018Z,1.83
2023-03-25T15:22:43.804Z,2.60
2023-03-25T15:28:09.268Z,1.80
2023-03-25T15:33:18.275Z,1.30
2023-03-25T15:38:35.718Z,1.63
2023-03-25T15:44:02.797Z,1.90
2023-03-25T15:49:18.863Z,1.33
2023-03-25T15:54:40.111Z,2.20
2023-03-25T15:59:41.960Z,2.33
2023-03-25T16:04:43.417Z,1.75
2023-03-25T16:09:45.301Z,1.83
2023-03-25T16:14:39.469Z,1.92
2023-03-25T16:19:36.179Z,1.83
2023-03-25T16:24:30.144Z,2.15
2023-03-25T16:29:24.340Z,1.93
2023-03-25T16:34:19.058Z,2.03
2023-03-25T16:39:16.199Z,3.03
2023-03-25T16:44:07.414Z,2.38
2023-03-25T16:49:01.813Z,3.03
2023-03-25T16:53:59.777Z,2.17
2023-03-25T16:59:03.196Z,2.33
2023-03-25T17:03:55.578Z,2.80
2023-03-25T17:08:54.067Z,1.88
2023-03-25T17:13:56.745Z,2.72
2023-03-25T17:18:55.171Z,3.33
2023-03-25T17:23:51.722Z,3.05
2023-03-25T17:28:45.410Z,2.60
2023-03-25T17:33:40.581Z,3.00
2023-03-25T17:38:40.792Z,2.28
2023-03-25T17:43:40.573Z,2.92
2023-03-25T17:48:32.469Z,3.10
2023-03-25T17:53:27.493Z,3.10
2023-03-25T17:58:22.849Z,2.25
2023-03-25T18:03:16.945Z,2.38
2023-03-25T18:08:10.454Z,2.40
2023-03-25T18:13:03.937Z,2.88
2023-03-25T18:17:55.928Z,3.22
2023-03-25T18:22:48.741Z,3.70
2023-03-25T18:27:44.133Z,3.38
2023-03-25T18:32:45.202Z,2.08
2023-03-25T18:37:38.987Z,2.55
2023-03-25T18:42:38.893Z,3.00
2023-03-25T18:47:29.501Z,2.40
2023-03-25T18:52:24.793Z,2.97
2023-03-25T18:57:15.577Z,1.00
2023-03-25T19:02:05.964Z,0.50
2023-03-25T19:06:57.345Z,0.50
2023-03-25T19:11:53.068Z,0.60
2023-03-25T19:16:57.191Z,0.60
2023-03-25T19:22:11.334Z,1.20
2023-03-25T19:27:10.165Z,1.93
2023-03-25T19:32:04.999Z,2.40
2023-03-25T19:37:03.314Z,2.92
2023-03-25T19:41:59.921Z,3.63
2023-03-25T19:46:56.069Z,3.20
2023-03-25T19:51:51.891Z,2.57
2023-03-25T19:56:46.772Z,2.20
2023-03-25T20:01:38.262Z,3.35
2023-03-25T20:06:31.834Z,3.42
2023-03-25T20:11:23.555Z,4.72
2023-03-25T20:16:20.968Z,3.90
2023-03-25T20:21:15.742Z,4.10
2023-03-25T20:26:13.273Z,4.15
2023-03-25T20:31:18.998Z,4.10
2023-03-25T20:36:14.116Z,3.17
2023-03-25T20:41:04.854Z,3.33
2023-03-25T20:46:01.949Z,3.03
2023-03-25T20:50:54.009Z,2.65
2023-03-25T20:55:48.702Z,2.47
2023-03-25T21:00:53.737Z,1.10
2023-03-25T21:05:50.157Z,0.63
2023-03-25T21:10:41.486Z,1.10
2023-03-25T21:15:35.085Z,0.73
2023-03-25T21:20:29.554Z,0.75
2023-03-25T21:25:34.940Z,0.60
2023-03-25T21:30:26.018Z,0.70
2023-03-25T21:35:19.448Z,0.70
2023-03-25T21:40:15.328Z,0.93
2023-03-25T21:45:18.301Z,1.00
2023-03-25T21:50:13.599Z,1.20
2023-03-25T21:55:14.850Z,0.90
2023-03-25T22:00:14.942Z,0.70
2023-03-25T22:05:05.294Z,1.17
2023-03-25T22:09:57.496Z,1.75
2023-03-25T22:14:50.872Z,2.15
2023-03-25T22:19:47.314Z,2.10
2023-03-25T22:24:38.667Z,3.03
2023-03-25T22:29:38.857Z,3.60
2023-03-25T22:34:32.278Z,4.85
2023-03-25T22:39:27.970Z,4.78
2023-03-25T22:44:22.073Z,4.90
2023-03-25T22:49:13.427Z,5.80
2023-03-25T22:54:05.688Z,6.33
2023-03-25T22:58:59.816Z,7.03
2023-03-25T23:03:51.381Z,7.50
2023-03-25T23:08:44.008Z,7.05
2023-03-25T23:13:35.171Z,7.50
2023-03-25T23:18:29.151Z,6.80
2023-03-25T23:23:22.788Z,7.53
2023-03-25T23:28:22.741Z,7.78
2023-03-25T23:33:15.937Z,7.60
2023-03-25T23:38:10.264Z,6.82
2023-03-25T23:43:03.361Z,7.57
2023-03-25T23:47:54.818Z,6.38
2023-03-25T23:52:45.720Z,7.00
2023-03-25T23:57:45.006Z,6.20
